Belleville, Kansas
Current Conditions -  °F | °C
As of 6:55 PM on Friday 24 Oct 2014 (Local Time) from KCNK Reporting Station
Clear Clear  
Wind Chill: 71°   Ceiling: Unl
Heat Index: 71°   Visibility: 10mi
Dew Point: 53°   Wind: 5mph
Humidity: 53%   Direction: 270°W
Pressure: 29.95"   Gusts: NA
Location:  39.82°N, 97.63°W
Report Text: KCNK 242355Z AUTO 27004KT 10SM CLR 22/12 A2995 RMK AO2 SLP133 T02170117 10283 20217 53005
Loading
Personal Weather Stations






























Interactive Weather Map
Tropical Storm Tracking
New forecast layout! Learn more

10-Day Weather Forecast

Advertisements
Track Severe Weather on mobile